LECO/LCG METAR and TAF weather

Enter ICAO airport designator
Station Type Date Time Source
LECO METAR 2019/12/07 07:30 UTC NOAA

LECO 070730Z 17006KT 2000 0500E -DZ BCFG BKN018 BKN040 10/10 Q1023 TEMPO 3000 -DZ BR BKN010


Station Type Date Time Source
LECO Decoded METAR 2019/12/07 07:30 UTC NOAA

La Coruna / Alvedro, Spain (LECO) 43-18N 008-23W 103M
Dec 07, 2019 - 02:30 AM EST / 2019.12.07 0730 UTC
Wind: from the S (170 degrees) at 7 MPH (6 KT):0
Visibility: 1 mile(s):0
Sky conditions: mostly cloudy
Weather: light drizzle; patches of fog
Temperature: 50 F (10 C)
Dew Point: 50 F (10 C)
Relative Humidity: 100%
Pressure (altimeter): 30.21 in. Hg (1023 hPa)
ob: LECO 070730Z 17006KT 2000 0500E -DZ BCFG BKN018 BKN040 10/10 Q1023 TEMPO 3000 -DZ BR BKN010
cycle: 7

Station Type Date Time Source
LECO TAF 2019/12/07 03:27 UTC NOAA

TAF LECO 070200Z 0703/0803 VRB05KT 9999 SCT015 BKN025 TX15/0714Z TN09/0705Z
TEMPO 0703/0712 3000 -RADZ BKN010 BKN014 PROB40
TEMPO 0703/0709 1500 BCFG BKN005 BKN010

Example: see airport list